sensor_id;sensor_type;location;lat;lon;timestamp;P1;durP1;ratioP1;P2;durP2;ratioP2
10162;SDS011;5123;52.556;13.384;2022-10-16T00:01:29;3.43;;;2.93;;
10162;SDS011;5123;52.556;13.384;2022-10-16T00:04:02;2.97;;;2.60;;
10162;SDS011;5123;52.556;13.384;2022-10-16T00:06:38;4.00;;;2.70;;
10162;SDS011;5123;52.556;13.384;2022-10-16T00:09:10;3.23;;;3.03;;
10162;SDS011;5123;52.556;13.384;2022-10-16T00:11:43;4.00;;;2.80;;
10162;SDS011;5123;52.556;13.384;2022-10-16T00:14:16;2.83;;;2.40;;
10162;SDS011;5123;52.556;13.384;2022-10-16T00:16:50;2.97;;;2.67;;
10162;SDS011;5123;52.556;13.384;2022-10-16T00:19:23;3.67;;;2.80;;
10162;SDS011;5123;52.556;13.384;2022-10-16T00:21:55;4.77;;;3.20;;
10162;SDS011;5123;52.556;13.384;2022-10-16T00:24:28;3.10;;;2.80;;
10162;SDS011;5123;52.556;13.384;2022-10-16T00:27:01;5.07;;;2.60;;
10162;SDS011;5123;52.556;13.384;2022-10-16T00:29:34;3.40;;;3.10;;
10162;SDS011;5123;52.556;13.384;2022-10-16T00:32:08;3.20;;;2.93;;
10162;SDS011;5123;52.556;13.384;2022-10-16T00:34:40;4.00;;;3.00;;
10162;SDS011;5123;52.556;13.384;2022-10-16T00:37:13;3.63;;;2.90;;
10162;SDS011;5123;52.556;13.384;2022-10-16T00:39:46;3.57;;;2.77;;
10162;SDS011;5123;52.556;13.384;2022-10-16T00:42:18;3.33;;;2.93;;
10162;SDS011;5123;52.556;13.384;2022-10-16T00:44:52;3.00;;;2.70;;
10162;SDS011;5123;52.556;13.384;2022-10-16T00:47:27;3.67;;;2.80;;
10162;SDS011;5123;52.556;13.384;2022-10-16T00:50:02;3.00;;;2.80;;
10162;SDS011;5123;52.556;13.384;2022-10-16T00:52:37;3.70;;;2.90;;
10162;SDS011;5123;52.556;13.384;2022-10-16T00:55:11;3.27;;;2.43;;
10162;SDS011;5123;52.556;13.384;2022-10-16T00:57:45;2.83;;;2.60;;
10162;SDS011;5123;52.556;13.384;2022-10-16T01:00:19;3.47;;;3.17;;
10162;SDS011;5123;52.556;13.384;2022-10-16T01:02:54;3.03;;;2.83;;
10162;SDS011;5123;52.556;13.384;2022-10-16T01:05:29;2.83;;;2.50;;
10162;SDS011;5123;52.556;13.384;2022-10-16T01:08:04;2.67;;;2.50;;
10162;SDS011;5123;52.556;13.384;2022-10-16T01:10:40;2.60;;;2.40;;
10162;SDS011;5123;52.556;13.384;2022-10-16T01:13:14;2.63;;;2.20;;
10162;SDS011;5123;52.556;13.384;2022-10-16T01:15:48;2.73;;;2.53;;
10162;SDS011;5123;52.556;13.384;2022-10-16T01:18:28;3.50;;;3.20;;
10162;SDS011;5123;52.556;13.384;2022-10-16T01:21:02;3.20;;;2.90;;
10162;SDS011;5123;52.556;13.384;2022-10-16T01:23:37;2.63;;;2.43;;
10162;SDS011;5123;52.556;13.384;2022-10-16T01:26:18;4.10;;;2.60;;
10162;SDS011;5123;52.556;13.384;2022-10-16T01:28:54;3.50;;;3.20;;
10162;SDS011;5123;52.556;13.384;2022-10-16T01:31:29;3.37;;;2.80;;
10162;SDS011;5123;52.556;13.384;2022-10-16T01:34:03;2.80;;;2.60;;
10162;SDS011;5123;52.556;13.384;2022-10-16T01:36:42;3.37;;;3.07;;
10162;SDS011;5123;52.556;13.384;2022-10-16T01:39:18;3.90;;;3.50;;
10162;SDS011;5123;52.556;13.384;2022-10-16T01:41:57;4.13;;;3.13;;
10162;SDS011;5123;52.556;13.384;2022-10-16T01:44:33;3.23;;;2.57;;
10162;SDS011;5123;52.556;13.384;2022-10-16T01:47:07;3.00;;;2.40;;
10162;SDS011;5123;52.556;13.384;2022-10-16T01:49:41;2.40;;;2.20;;
10162;SDS011;5123;52.556;13.384;2022-10-16T01:52:16;2.50;;;2.30;;
10162;SDS011;5123;52.556;13.384;2022-10-16T01:54:50;2.60;;;2.40;;
10162;SDS011;5123;52.556;13.384;2022-10-16T01:57:24;2.47;;;2.20;;
10162;SDS011;5123;52.556;13.384;2022-10-16T02:00:02;2.47;;;2.00;;
10162;SDS011;5123;52.556;13.384;2022-10-16T02:02:36;4.27;;;2.47;;
10162;SDS011;5123;52.556;13.384;2022-10-16T02:05:11;2.47;;;2.30;;
10162;SDS011;5123;52.556;13.384;2022-10-16T02:07:44;3.80;;;3.03;;
10162;SDS011;5123;52.556;13.384;2022-10-16T02:10:17;5.20;;;4.70;;
10162;SDS011;5123;52.556;13.384;2022-10-16T02:12:53;5.90;;;5.30;;
10162;SDS011;5123;52.556;13.384;2022-10-16T02:15:27;5.90;;;4.47;;
10162;SDS011;5123;52.556;13.384;2022-10-16T02:18:00;3.63;;;3.20;;
10162;SDS011;5123;52.556;13.384;2022-10-16T02:20:34;3.33;;;2.83;;
10162;SDS011;5123;52.556;13.384;2022-10-16T02:23:09;2.50;;;2.30;;
10162;SDS011;5123;52.556;13.384;2022-10-16T02:25:43;2.83;;;2.20;;
10162;SDS011;5123;52.556;13.384;2022-10-16T02:28:17;2.40;;;2.20;;
10162;SDS011;5123;52.556;13.384;2022-10-16T02:30:54;2.63;;;2.43;;
10162;SDS011;5123;52.556;13.384;2022-10-16T02:33:27;3.40;;;2.43;;
10162;SDS011;5123;52.556;13.384;2022-10-16T02:36:00;2.40;;;1.97;;
10162;SDS011;5123;52.556;13.384;2022-10-16T02:38:33;3.43;;;2.13;;
10162;SDS011;5123;52.556;13.384;2022-10-16T02:41:06;2.50;;;2.30;;
10162;SDS011;5123;52.556;13.384;2022-10-16T02:43:41;2.57;;;2.37;;
10162;SDS011;5123;52.556;13.384;2022-10-16T02:46:15;3.40;;;2.30;;
10162;SDS011;5123;52.556;13.384;2022-10-16T02:48:49;2.80;;;2.33;;
10162;SDS011;5123;52.556;13.384;2022-10-16T02:51:22;2.40;;;2.20;;
10162;SDS011;5123;52.556;13.384;2022-10-16T02:53:54;2.10;;;2.00;;
10162;SDS011;5123;52.556;13.384;2022-10-16T02:56:27;2.17;;;2.00;;
10162;SDS011;5123;52.556;13.384;2022-10-16T02:59:01;2.37;;;2.17;;
10162;SDS011;5123;52.556;13.384;2022-10-16T03:01:35;2.40;;;2.20;;
10162;SDS011;5123;52.556;13.384;2022-10-16T03:04:08;2.20;;;2.00;;
10162;SDS011;5123;52.556;13.384;2022-10-16T03:06:40;2.63;;;1.80;;
10162;SDS011;5123;52.556;13.384;2022-10-16T03:09:13;2.13;;;1.93;;
10162;SDS011;5123;52.556;13.384;2022-10-16T03:11:46;2.43;;;2.23;;
10162;SDS011;5123;52.556;13.384;2022-10-16T03:14:18;2.63;;;2.30;;
10162;SDS011;5123;52.556;13.384;2022-10-16T03:16:52;3.50;;;2.27;;
10162;SDS011;5123;52.556;13.384;2022-10-16T03:19:25;3.87;;;2.40;;
10162;SDS011;5123;52.556;13.384;2022-10-16T03:21:58;2.63;;;2.30;;
10162;SDS011;5123;52.556;13.384;2022-10-16T03:24:31;2.40;;;2.30;;
10162;SDS011;5123;52.556;13.384;2022-10-16T03:27:03;2.63;;;2.43;;
10162;SDS011;5123;52.556;13.384;2022-10-16T03:29:36;2.63;;;2.43;;
10162;SDS011;5123;52.556;13.384;2022-10-16T03:32:10;2.83;;;2.63;;
10162;SDS011;5123;52.556;13.384;2022-10-16T03:34:43;2.60;;;2.40;;
10162;SDS011;5123;52.556;13.384;2022-10-16T03:37:15;3.23;;;2.40;;
10162;SDS011;5123;52.556;13.384;2022-10-16T03:39:48;3.67;;;2.50;;
10162;SDS011;5123;52.556;13.384;2022-10-16T03:42:21;3.63;;;2.60;;
10162;SDS011;5123;52.556;13.384;2022-10-16T03:44:54;4.10;;;2.60;;
10162;SDS011;5123;52.556;13.384;2022-10-16T03:47:28;4.73;;;2.80;;
10162;SDS011;5123;52.556;13.384;2022-10-16T03:50:00;3.10;;;2.77;;
10162;SDS011;5123;52.556;13.384;2022-10-16T03:52:36;4.00;;;2.40;;
10162;SDS011;5123;52.556;13.384;2022-10-16T03:55:08;2.20;;;2.10;;
10162;SDS011;5123;52.556;13.384;2022-10-16T03:57:41;3.90;;;2.60;;
10162;SDS011;5123;52.556;13.384;2022-10-16T04:00:14;2.87;;;2.40;;
10162;SDS011;5123;52.556;13.384;2022-10-16T04:02:48;2.83;;;2.53;;
10162;SDS011;5123;52.556;13.384;2022-10-16T04:05:22;3.53;;;2.83;;
10162;SDS011;5123;52.556;13.384;2022-10-16T04:07:55;4.23;;;3.03;;
10162;SDS011;5123;52.556;13.384;2022-10-16T04:10:30;2.87;;;2.47;;
10162;SDS011;5123;52.556;13.384;2022-10-16T04:13:03;3.20;;;2.57;;
10162;SDS011;5123;52.556;13.384;2022-10-16T04:15:36;2.60;;;2.40;;
10162;SDS011;5123;52.556;13.384;2022-10-16T04:18:10;2.73;;;2.50;;
10162;SDS011;5123;52.556;13.384;2022-10-16T04:20:43;2.70;;;2.50;;
10162;SDS011;5123;52.556;13.384;2022-10-16T04:23:16;6.33;;;2.70;;
10162;SDS011;5123;52.556;13.384;2022-10-16T04:25:49;2.90;;;2.70;;
10162;SDS011;5123;52.556;13.384;2022-10-16T04:28:21;3.77;;;2.80;;
10162;SDS011;5123;52.556;13.384;2022-10-16T04:30:56;2.70;;;2.50;;
10162;SDS011;5123;52.556;13.384;2022-10-16T04:33:30;3.93;;;2.80;;
10162;SDS011;5123;52.556;13.384;2022-10-16T04:36:03;3.47;;;2.50;;
10162;SDS011;5123;52.556;13.384;2022-10-16T04:38:36;2.80;;;2.60;;
10162;SDS011;5123;52.556;13.384;2022-10-16T04:41:11;3.33;;;2.83;;
10162;SDS011;5123;52.556;13.384;2022-10-16T04:43:45;2.87;;;2.67;;
10162;SDS011;5123;52.556;13.384;2022-10-16T04:46:18;3.13;;;2.63;;
10162;SDS011;5123;52.556;13.384;2022-10-16T04:48:52;2.80;;;2.60;;
10162;SDS011;5123;52.556;13.384;2022-10-16T04:51:25;3.57;;;3.00;;
10162;SDS011;5123;52.556;13.384;2022-10-16T04:53:59;3.23;;;2.93;;
10162;SDS011;5123;52.556;13.384;2022-10-16T04:56:31;3.30;;;3.00;;
10162;SDS011;5123;52.556;13.384;2022-10-16T04:59:11;3.20;;;2.93;;
10162;SDS011;5123;52.556;13.384;2022-10-16T05:01:44;4.63;;;3.07;;
10162;SDS011;5123;52.556;13.384;2022-10-16T05:04:18;3.40;;;2.97;;
10162;SDS011;5123;52.556;13.384;2022-10-16T05:06:53;8.67;;;3.33;;
10162;SDS011;5123;52.556;13.384;2022-10-16T05:09:26;3.53;;;2.87;;
10162;SDS011;5123;52.556;13.384;2022-10-16T05:11:59;3.20;;;2.90;;
10162;SDS011;5123;52.556;13.384;2022-10-16T05:14:32;5.70;;;3.30;;
10162;SDS011;5123;52.556;13.384;2022-10-16T05:17:04;4.70;;;3.17;;
10162;SDS011;5123;52.556;13.384;2022-10-16T05:19:38;4.60;;;2.83;;
10162;SDS011;5123;52.556;13.384;2022-10-16T05:22:11;3.20;;;2.87;;
10162;SDS011;5123;52.556;13.384;2022-10-16T05:24:44;4.57;;;2.93;;
10162;SDS011;5123;52.556;13.384;2022-10-16T05:27:16;3.30;;;3.00;;
10162;SDS011;5123;52.556;13.384;2022-10-16T05:29:51;3.97;;;3.10;;
10162;SDS011;5123;52.556;13.384;2022-10-16T05:35:08;2.97;;;2.70;;
10162;SDS011;5123;52.556;13.384;2022-10-16T05:37:43;3.50;;;2.93;;
10162;SDS011;5123;52.556;13.384;2022-10-16T05:40:15;3.40;;;3.10;;
10162;SDS011;5123;52.556;13.384;2022-10-16T05:42:54;4.90;;;2.87;;
10162;SDS011;5123;52.556;13.384;2022-10-16T05:45:27;5.03;;;3.40;;
10162;SDS011;5123;52.556;13.384;2022-10-16T05:47:59;4.03;;;3.73;;
10162;SDS011;5123;52.556;13.384;2022-10-16T05:50:33;3.90;;;3.60;;
10162;SDS011;5123;52.556;13.384;2022-10-16T05:53:06;3.83;;;3.53;;
10162;SDS011;5123;52.556;13.384;2022-10-16T05:55:39;3.73;;;3.30;;
10162;SDS011;5123;52.556;13.384;2022-10-16T05:58:11;6.73;;;3.30;;
10162;SDS011;5123;52.556;13.384;2022-10-16T06:00:44;3.13;;;2.93;;
10162;SDS011;5123;52.556;13.384;2022-10-16T06:03:17;2.93;;;2.73;;
10162;SDS011;5123;52.556;13.384;2022-10-16T06:05:51;3.30;;;3.00;;
10162;SDS011;5123;52.556;13.384;2022-10-16T06:08:24;3.33;;;3.00;;
10162;SDS011;5123;52.556;13.384;2022-10-16T06:11:00;3.43;;;3.13;;
10162;SDS011;5123;52.556;13.384;2022-10-16T06:13:35;3.77;;;2.90;;
10162;SDS011;5123;52.556;13.384;2022-10-16T06:16:08;3.20;;;3.00;;
10162;SDS011;5123;52.556;13.384;2022-10-16T06:18:41;3.30;;;3.00;;
10162;SDS011;5123;52.556;13.384;2022-10-16T06:21:16;3.00;;;2.70;;
10162;SDS011;5123;52.556;13.384;2022-10-16T06:23:49;3.03;;;2.83;;
10162;SDS011;5123;52.556;13.384;2022-10-16T06:26:22;4.77;;;3.43;;
10162;SDS011;5123;52.556;13.384;2022-10-16T06:28:56;3.63;;;3.00;;
10162;SDS011;5123;52.556;13.384;2022-10-16T06:31:29;3.23;;;2.80;;
10162;SDS011;5123;52.556;13.384;2022-10-16T06:34:04;3.23;;;2.93;;
10162;SDS011;5123;52.556;13.384;2022-10-16T06:36:42;3.87;;;3.47;;
10162;SDS011;5123;52.556;13.384;2022-10-16T06:39:14;3.67;;;3.20;;
10162;SDS011;5123;52.556;13.384;2022-10-16T06:41:47;3.90;;;3.13;;
10162;SDS011;5123;52.556;13.384;2022-10-16T06:44:20;3.53;;;3.20;;
10162;SDS011;5123;52.556;13.384;2022-10-16T06:46:53;3.00;;;2.80;;
10162;SDS011;5123;52.556;13.384;2022-10-16T06:49:25;5.27;;;3.03;;
10162;SDS011;5123;52.556;13.384;2022-10-16T06:52:01;3.90;;;3.60;;
10162;SDS011;5123;52.556;13.384;2022-10-16T06:54:34;3.37;;;3.07;;
10162;SDS011;5123;52.556;13.384;2022-10-16T06:57:13;3.73;;;3.33;;
10162;SDS011;5123;52.556;13.384;2022-10-16T06:59:48;3.43;;;3.13;;
10162;SDS011;5123;52.556;13.384;2022-10-16T07:02:25;4.50;;;4.10;;
10162;SDS011;5123;52.556;13.384;2022-10-16T07:04:59;3.67;;;3.37;;
10162;SDS011;5123;52.556;13.384;2022-10-16T07:07:33;5.30;;;3.43;;
10162;SDS011;5123;52.556;13.384;2022-10-16T07:10:06;4.10;;;3.70;;
10162;SDS011;5123;52.556;13.384;2022-10-16T07:12:39;4.17;;;3.77;;
10162;SDS011;5123;52.556;13.384;2022-10-16T07:15:12;3.43;;;3.07;;
10162;SDS011;5123;52.556;13.384;2022-10-16T07:17:45;3.27;;;3.03;;
10162;SDS011;5123;52.556;13.384;2022-10-16T07:20:17;3.27;;;2.50;;
10162;SDS011;5123;52.556;13.384;2022-10-16T07:22:51;4.80;;;3.07;;
10162;SDS011;5123;52.556;13.384;2022-10-16T07:25:24;4.37;;;2.57;;
10162;SDS011;5123;52.556;13.384;2022-10-16T07:27:57;4.07;;;3.00;;
10162;SDS011;5123;52.556;13.384;2022-10-16T07:30:30;3.00;;;2.70;;
10162;SDS011;5123;52.556;13.384;2022-10-16T07:33:02;2.73;;;2.50;;
10162;SDS011;5123;52.556;13.384;2022-10-16T07:35:35;4.50;;;2.70;;
10162;SDS011;5123;52.556;13.384;2022-10-16T07:38:09;3.37;;;3.07;;
10162;SDS011;5123;52.556;13.384;2022-10-16T07:40:42;3.33;;;2.70;;
10162;SDS011;5123;52.556;13.384;2022-10-16T07:43:15;3.60;;;3.30;;
10162;SDS011;5123;52.556;13.384;2022-10-16T07:45:48;4.97;;;2.33;;
10162;SDS011;5123;52.556;13.384;2022-10-16T07:48:22;2.43;;;2.17;;
10162;SDS011;5123;52.556;13.384;2022-10-16T07:50:56;2.23;;;2.10;;
10162;SDS011;5123;52.556;13.384;2022-10-16T07:53:31;2.90;;;2.60;;
10162;SDS011;5123;52.556;13.384;2022-10-16T07:56:04;3.60;;;2.60;;
10162;SDS011;5123;52.556;13.384;2022-10-16T07:58:37;2.97;;;2.60;;
10162;SDS011;5123;52.556;13.384;2022-10-16T08:01:11;2.63;;;2.43;;
10162;SDS011;5123;52.556;13.384;2022-10-16T08:03:45;2.50;;;2.30;;
10162;SDS011;5123;52.556;13.384;2022-10-16T08:06:18;3.57;;;2.30;;
10162;SDS011;5123;52.556;13.384;2022-10-16T08:08:59;3.50;;;2.47;;
10162;SDS011;5123;52.556;13.384;2022-10-16T08:11:32;2.30;;;2.10;;
10162;SDS011;5123;52.556;13.384;2022-10-16T08:14:05;2.93;;;2.20;;
10162;SDS011;5123;52.556;13.384;2022-10-16T08:16:37;2.33;;;2.10;;
10162;SDS011;5123;52.556;13.384;2022-10-16T08:19:10;3.67;;;3.00;;
10162;SDS011;5123;52.556;13.384;2022-10-16T08:21:46;3.10;;;2.80;;
10162;SDS011;5123;52.556;13.384;2022-10-16T08:24:20;2.77;;;2.47;;
10162;SDS011;5123;52.556;13.384;2022-10-16T08:26:53;2.60;;;2.40;;
10162;SDS011;5123;52.556;13.384;2022-10-16T08:29:26;2.60;;;2.40;;
10162;SDS011;5123;52.556;13.384;2022-10-16T08:31:58;2.83;;;2.20;;
10162;SDS011;5123;52.556;13.384;2022-10-16T08:34:31;2.23;;;2.03;;
10162;SDS011;5123;52.556;13.384;2022-10-16T08:37:04;2.47;;;1.87;;
10162;SDS011;5123;52.556;13.384;2022-10-16T08:39:40;3.67;;;2.20;;
10162;SDS011;5123;52.556;13.384;2022-10-16T08:42:15;2.97;;;2.10;;
10162;SDS011;5123;52.556;13.384;2022-10-16T08:44:58;1.90;;;1.80;;
10162;SDS011;5123;52.556;13.384;2022-10-16T08:47:35;2.10;;;1.90;;
10162;SDS011;5123;52.556;13.384;2022-10-16T08:50:12;2.27;;;2.07;;
10162;SDS011;5123;52.556;13.384;2022-10-16T08:52:45;2.43;;;2.23;;
10162;SDS011;5123;52.556;13.384;2022-10-16T08:55:29;2.67;;;2.30;;
10162;SDS011;5123;52.556;13.384;2022-10-16T08:58:07;2.70;;;2.50;;
10162;SDS011;5123;52.556;13.384;2022-10-16T09:00:43;2.87;;;2.00;;
10162;SDS011;5123;52.556;13.384;2022-10-16T09:03:22;3.97;;;2.13;;
10162;SDS011;5123;52.556;13.384;2022-10-16T09:05:57;2.30;;;2.10;;
10162;SDS011;5123;52.556;13.384;2022-10-16T09:08:36;2.27;;;1.90;;
10162;SDS011;5123;52.556;13.384;2022-10-16T09:11:16;2.00;;;1.90;;
10162;SDS011;5123;52.556;13.384;2022-10-16T09:13:55;2.10;;;1.90;;
10162;SDS011;5123;52.556;13.384;2022-10-16T09:16:32;2.30;;;2.10;;
10162;SDS011;5123;52.556;13.384;2022-10-16T09:19:09;2.30;;;1.83;;
10162;SDS011;5123;52.556;13.384;2022-10-16T09:21:45;2.20;;;2.00;;
10162;SDS011;5123;52.556;13.384;2022-10-16T09:24:19;2.00;;;1.90;;
10162;SDS011;5123;52.556;13.384;2022-10-16T09:26:58;3.43;;;2.33;;
10162;SDS011;5123;52.556;13.384;2022-10-16T09:29:31;3.20;;;2.90;;
10162;SDS011;5123;52.556;13.384;2022-10-16T09:32:08;2.37;;;2.17;;
10162;SDS011;5123;52.556;13.384;2022-10-16T09:34:42;2.23;;;2.03;;
10162;SDS011;5123;52.556;13.384;2022-10-16T09:37:17;2.13;;;1.77;;
10162;SDS011;5123;52.556;13.384;2022-10-16T09:39:51;3.13;;;2.43;;
10162;SDS011;5123;52.556;13.384;2022-10-16T09:42:27;1.90;;;1.80;;
10162;SDS011;5123;52.556;13.384;2022-10-16T09:45:01;3.57;;;2.27;;
10162;SDS011;5123;52.556;13.384;2022-10-16T09:47:35;2.60;;;2.20;;
10162;SDS011;5123;52.556;13.384;2022-10-16T09:50:19;2.47;;;1.83;;
10162;SDS011;5123;52.556;13.384;2022-10-16T09:53:02;2.97;;;1.80;;
10162;SDS011;5123;52.556;13.384;2022-10-16T09:55:35;2.73;;;2.30;;
10162;SDS011;5123;52.556;13.384;2022-10-16T09:58:13;3.17;;;2.13;;
10162;SDS011;5123;52.556;13.384;2022-10-16T10:00:48;2.00;;;1.87;;
10162;SDS011;5123;52.556;13.384;2022-10-16T10:03:30;2.30;;;2.10;;
10162;SDS011;5123;52.556;13.384;2022-10-16T10:06:07;1.70;;;1.60;;
10162;SDS011;5123;52.556;13.384;2022-10-16T10:08:57;2.00;;;1.80;;
10162;SDS011;5123;52.556;13.384;2022-10-16T10:11:36;2.03;;;1.93;;
10162;SDS011;5123;52.556;13.384;2022-10-16T10:14:15;3.63;;;2.20;;
10162;SDS011;5123;52.556;13.384;2022-10-16T10:16:49;3.93;;;2.63;;
10162;SDS011;5123;52.556;13.384;2022-10-16T10:19:23;2.20;;;2.00;;
10162;SDS011;5123;52.556;13.384;2022-10-16T10:21:59;3.70;;;1.77;;
10162;SDS011;5123;52.556;13.384;2022-10-16T10:24:32;2.27;;;2.03;;
10162;SDS011;5123;52.556;13.384;2022-10-16T10:27:06;3.33;;;1.77;;
10162;SDS011;5123;52.556;13.384;2022-10-16T10:29:46;2.77;;;1.60;;
10162;SDS011;5123;52.556;13.384;2022-10-16T10:32:25;3.97;;;1.80;;
10162;SDS011;5123;52.556;13.384;2022-10-16T10:35:06;2.60;;;2.20;;
10162;SDS011;5123;52.556;13.384;2022-10-16T10:37:47;1.70;;;1.60;;
10162;SDS011;5123;52.556;13.384;2022-10-16T10:40:28;2.37;;;2.10;;
10162;SDS011;5123;52.556;13.384;2022-10-16T10:43:04;3.30;;;1.93;;
10162;SDS011;5123;52.556;13.384;2022-10-16T10:45:43;3.33;;;2.10;;
10162;SDS011;5123;52.556;13.384;2022-10-16T10:48:20;3.80;;;2.17;;
10162;SDS011;5123;52.556;13.384;2022-10-16T10:50:54;2.60;;;2.00;;
10162;SDS011;5123;52.556;13.384;2022-10-16T10:53:36;6.07;;;2.73;;
10162;SDS011;5123;52.556;13.384;2022-10-16T10:56:16;1.63;;;1.53;;
10162;SDS011;5123;52.556;13.384;2022-10-16T10:59:02;3.83;;;1.77;;
10162;SDS011;5123;52.556;13.384;2022-10-16T11:01:44;2.90;;;1.93;;
10162;SDS011;5123;52.556;13.384;2022-10-16T11:04:29;1.63;;;1.40;;
10162;SDS011;5123;52.556;13.384;2022-10-16T11:07:04;1.50;;;1.33;;
10162;SDS011;5123;52.556;13.384;2022-10-16T11:09:38;1.50;;;1.40;;
10162;SDS011;5123;52.556;13.384;2022-10-16T11:12:14;1.60;;;1.40;;
10162;SDS011;5123;52.556;13.384;2022-10-16T11:14:48;2.10;;;1.70;;
10162;SDS011;5123;52.556;13.384;2022-10-16T11:17:25;2.40;;;1.33;;
10162;SDS011;5123;52.556;13.384;2022-10-16T11:20:00;3.93;;;1.93;;
10162;SDS011;5123;52.556;13.384;2022-10-16T11:22:36;1.60;;;1.50;;
10162;SDS011;5123;52.556;13.384;2022-10-16T11:25:12;4.40;;;1.70;;
10162;SDS011;5123;52.556;13.384;2022-10-16T11:27:47;3.57;;;1.63;;
10162;SDS011;5123;52.556;13.384;2022-10-16T11:30:24;7.33;;;1.70;;
10162;SDS011;5123;52.556;13.384;2022-10-16T11:33:03;2.47;;;1.53;;
10162;SDS011;5123;52.556;13.384;2022-10-16T11:35:38;2.00;;;1.90;;
10162;SDS011;5123;52.556;13.384;2022-10-16T11:38:14;4.60;;;1.70;;
10162;SDS011;5123;52.556;13.384;2022-10-16T11:40:48;1.87;;;1.77;;
10162;SDS011;5123;52.556;13.384;2022-10-16T11:43:24;1.67;;;1.50;;
10162;SDS011;5123;52.556;13.384;2022-10-16T11:45:58;1.37;;;1.27;;
10162;SDS011;5123;52.556;13.384;2022-10-16T11:48:39;3.33;;;1.57;;
10162;SDS011;5123;52.556;13.384;2022-10-16T11:51:15;1.30;;;1.20;;
10162;SDS011;5123;52.556;13.384;2022-10-16T11:53:53;1.20;;;1.00;;
10162;SDS011;5123;52.556;13.384;2022-10-16T11:56:27;1.90;;;1.60;;
10162;SDS011;5123;52.556;13.384;2022-10-16T11:59:01;2.20;;;1.77;;
10162;SDS011;5123;52.556;13.384;2022-10-16T12:01:37;2.57;;;1.63;;
10162;SDS011;5123;52.556;13.384;2022-10-16T12:04:16;1.70;;;1.53;;
10162;SDS011;5123;52.556;13.384;2022-10-16T12:06:52;4.47;;;1.60;;
10162;SDS011;5123;52.556;13.384;2022-10-16T12:09:28;1.50;;;1.40;;
10162;SDS011;5123;52.556;13.384;2022-10-16T12:12:01;1.80;;;1.53;;
10162;SDS011;5123;52.556;13.384;2022-10-16T12:14:38;1.63;;;1.50;;
10162;SDS011;5123;52.556;13.384;2022-10-16T12:17:34;4.40;;;1.97;;
10162;SDS011;5123;52.556;13.384;2022-10-16T12:20:22;2.80;;;2.23;;
10162;SDS011;5123;52.556;13.384;2022-10-16T12:22:56;1.70;;;1.50;;
10162;SDS011;5123;52.556;13.384;2022-10-16T12:25:29;1.53;;;1.43;;
10162;SDS011;5123;52.556;13.384;2022-10-16T12:28:04;1.77;;;1.60;;
10162;SDS011;5123;52.556;13.384;2022-10-16T12:30:37;3.40;;;1.80;;
10162;SDS011;5123;52.556;13.384;2022-10-16T12:33:16;3.30;;;1.50;;
10162;SDS011;5123;52.556;13.384;2022-10-16T12:35:53;2.37;;;1.50;;
10162;SDS011;5123;52.556;13.384;2022-10-16T12:38:27;1.50;;;1.30;;
10162;SDS011;5123;52.556;13.384;2022-10-16T12:41:01;1.73;;;1.13;;
10162;SDS011;5123;52.556;13.384;2022-10-16T12:43:35;2.50;;;1.50;;
10162;SDS011;5123;52.556;13.384;2022-10-16T12:46:33;2.20;;;1.70;;
10162;SDS011;5123;52.556;13.384;2022-10-16T12:49:21;1.03;;;1.00;;
10162;SDS011;5123;52.556;13.384;2022-10-16T12:51:57;2.00;;;1.80;;
10162;SDS011;5123;52.556;13.384;2022-10-16T12:54:30;1.37;;;1.20;;
10162;SDS011;5123;52.556;13.384;2022-10-16T12:57:07;1.73;;;1.00;;
10162;SDS011;5123;52.556;13.384;2022-10-16T12:59:42;2.17;;;1.03;;
10162;SDS011;5123;52.556;13.384;2022-10-16T13:02:22;3.00;;;1.10;;
10162;SDS011;5123;52.556;13.384;2022-10-16T13:05:04;2.93;;;1.10;;
10162;SDS011;5123;52.556;13.384;2022-10-16T13:07:47;1.27;;;1.17;;
10162;SDS011;5123;52.556;13.384;2022-10-16T13:10:24;2.30;;;1.10;;
10162;SDS011;5123;52.556;13.384;2022-10-16T13:13:05;2.53;;;1.13;;
10162;SDS011;5123;52.556;13.384;2022-10-16T13:15:47;3.50;;;1.20;;
10162;SDS011;5123;52.556;13.384;2022-10-16T13:18:22;1.93;;;1.40;;
10162;SDS011;5123;52.556;13.384;2022-10-16T13:21:01;1.30;;;1.20;;
10162;SDS011;5123;52.556;13.384;2022-10-16T13:23:38;1.30;;;0.90;;
10162;SDS011;5123;52.556;13.384;2022-10-16T13:26:17;1.00;;;1.00;;
10162;SDS011;5123;52.556;13.384;2022-10-16T13:28:53;2.57;;;1.20;;
10162;SDS011;5123;52.556;13.384;2022-10-16T13:31:26;2.00;;;1.20;;
10162;SDS011;5123;52.556;13.384;2022-10-16T13:33:58;1.40;;;1.10;;
10162;SDS011;5123;52.556;13.384;2022-10-16T13:36:34;1.23;;;1.13;;
10162;SDS011;5123;52.556;13.384;2022-10-16T13:39:11;1.07;;;1.03;;
10162;SDS011;5123;52.556;13.384;2022-10-16T13:41:44;1.23;;;1.13;;
10162;SDS011;5123;52.556;13.384;2022-10-16T13:44:17;1.40;;;1.20;;
10162;SDS011;5123;52.556;13.384;2022-10-16T13:46:57;1.20;;;1.10;;
10162;SDS011;5123;52.556;13.384;2022-10-16T13:49:30;2.10;;;1.20;;
10162;SDS011;5123;52.556;13.384;2022-10-16T13:52:03;2.17;;;1.20;;
10162;SDS011;5123;52.556;13.384;2022-10-16T13:54:37;1.00;;;1.00;;
10162;SDS011;5123;52.556;13.384;2022-10-16T13:57:11;2.03;;;1.20;;
10162;SDS011;5123;52.556;13.384;2022-10-16T13:59:58;3.70;;;1.60;;
10162;SDS011;5123;52.556;13.384;2022-10-16T14:02:30;1.30;;;1.20;;
10162;SDS011;5123;52.556;13.384;2022-10-16T14:05:08;2.90;;;1.43;;
10162;SDS011;5123;52.556;13.384;2022-10-16T14:07:41;1.50;;;1.30;;
10162;SDS011;5123;52.556;13.384;2022-10-16T14:10:20;1.37;;;1.27;;
10162;SDS011;5123;52.556;13.384;2022-10-16T14:12:55;2.40;;;1.37;;
10162;SDS011;5123;52.556;13.384;2022-10-16T14:15:28;2.73;;;1.10;;
10162;SDS011;5123;52.556;13.384;2022-10-16T14:18:01;2.47;;;1.73;;
10162;SDS011;5123;52.556;13.384;2022-10-16T14:20:34;6.20;;;4.07;;
10162;SDS011;5123;52.556;13.384;2022-10-16T14:23:18;1.20;;;1.10;;
10162;SDS011;5123;52.556;13.384;2022-10-16T14:25:53;2.40;;;1.43;;
10162;SDS011;5123;52.556;13.384;2022-10-16T14:28:25;1.83;;;1.50;;
10162;SDS011;5123;52.556;13.384;2022-10-16T14:31:00;2.60;;;1.30;;
10162;SDS011;5123;52.556;13.384;2022-10-16T14:33:33;2.53;;;1.90;;
10162;SDS011;5123;52.556;13.384;2022-10-16T14:36:11;8.10;;;4.70;;
10162;SDS011;5123;52.556;13.384;2022-10-16T14:38:48;7.83;;;5.80;;
10162;SDS011;5123;52.556;13.384;2022-10-16T14:41:22;7.53;;;5.63;;
10162;SDS011;5123;52.556;13.384;2022-10-16T14:43:56;6.17;;;2.60;;
10162;SDS011;5123;52.556;13.384;2022-10-16T14:46:30;5.03;;;3.30;;
10162;SDS011;5123;52.556;13.384;2022-10-16T14:49:05;4.43;;;2.87;;
10162;SDS011;5123;52.556;13.384;2022-10-16T14:51:43;3.93;;;3.00;;
10162;SDS011;5123;52.556;13.384;2022-10-16T14:54:18;6.10;;;4.27;;
10162;SDS011;5123;52.556;13.384;2022-10-16T14:56:53;2.93;;;2.50;;
10162;SDS011;5123;52.556;13.384;2022-10-16T14:59:27;8.00;;;5.30;;
10162;SDS011;5123;52.556;13.384;2022-10-16T15:02:01;4.33;;;3.50;;
10162;SDS011;5123;52.556;13.384;2022-10-16T15:04:41;15.77;;;11.65;;
10162;SDS011;5123;52.556;13.384;2022-10-16T15:07:14;9.33;;;7.60;;
10162;SDS011;5123;52.556;13.384;2022-10-16T15:09:46;12.87;;;10.27;;
10162;SDS011;5123;52.556;13.384;2022-10-16T15:12:21;24.27;;;19.13;;
10162;SDS011;5123;52.556;13.384;2022-10-16T15:14:53;9.23;;;7.47;;
10162;SDS011;5123;52.556;13.384;2022-10-16T15:17:26;22.30;;;19.23;;
10162;SDS011;5123;52.556;13.384;2022-10-16T15:19:59;7.50;;;5.77;;
10162;SDS011;5123;52.556;13.384;2022-10-16T15:22:32;4.87;;;2.97;;
10162;SDS011;5123;52.556;13.384;2022-10-16T15:25:08;2.40;;;2.13;;
10162;SDS011;5123;52.556;13.384;2022-10-16T15:27:44;3.47;;;2.37;;
10162;SDS011;5123;52.556;13.384;2022-10-16T15:30:16;3.53;;;1.93;;
10162;SDS011;5123;52.556;13.384;2022-10-16T15:32:49;1.97;;;1.70;;
10162;SDS011;5123;52.556;13.384;2022-10-16T15:35:22;2.90;;;2.40;;
10162;SDS011;5123;52.556;13.384;2022-10-16T15:37:55;2.30;;;1.60;;